createdAt,value
2019-03-06T00:01:21.768Z,7.67
2019-03-06T00:03:51.075Z,8.30
2019-03-06T00:06:20.457Z,6.83
2019-03-06T00:08:49.776Z,8.68
2019-03-06T00:11:19.318Z,8.13
2019-03-06T00:13:48.568Z,7.42
2019-03-06T00:16:17.951Z,6.67
2019-03-06T00:18:47.386Z,7.72
2019-03-06T00:21:16.830Z,7.45
2019-03-06T00:23:46.308Z,6.87
2019-03-06T00:26:15.733Z,9.83
2019-03-06T00:28:44.993Z,7.95
2019-03-06T00:31:14.344Z,8.60
2019-03-06T00:33:43.764Z,7.62
2019-03-06T00:36:17.213Z,8.95
2019-03-06T00:38:46.515Z,9.03
2019-03-06T00:41:27.189Z,8.00
2019-03-06T00:43:56.487Z,11.12
2019-03-06T00:46:25.814Z,7.42
2019-03-06T00:48:55.189Z,8.80
2019-03-06T00:51:24.438Z,9.03
2019-03-06T00:53:53.816Z,7.15
2019-03-06T00:56:23.518Z,9.95
2019-03-06T00:58:52.827Z,8.73
2019-03-06T01:01:22.447Z,8.63
2019-03-06T01:03:51.841Z,8.93
2019-03-06T01:06:21.281Z,7.90
2019-03-06T01:08:50.845Z,7.78
2019-03-06T01:11:20.156Z,7.58
2019-03-06T01:13:49.294Z,7.17
2019-03-06T01:16:18.363Z,8.05
2019-03-06T01:18:47.408Z,7.67
2019-03-06T01:21:16.497Z,10.20
2019-03-06T01:23:45.730Z,9.20
2019-03-06T01:26:14.804Z,9.25
2019-03-06T01:28:43.870Z,10.35
2019-03-06T01:31:12.928Z,8.45
2019-03-06T01:33:49.765Z,7.90
2019-03-06T01:36:35.069Z,7.15
2019-03-06T01:39:27.249Z,9.83
2019-03-06T01:42:11.176Z,8.35
2019-03-06T01:44:43.913Z,9.20
2019-03-06T01:47:13.048Z,7.90
2019-03-06T01:49:42.147Z,8.90
2019-03-06T01:52:11.298Z,10.50
2019-03-06T01:54:40.365Z,10.40
2019-03-06T01:57:09.466Z,8.98
2019-03-06T01:59:38.509Z,10.15
2019-03-06T02:02:07.554Z,7.65
2019-03-06T02:04:36.633Z,10.13
2019-03-06T02:07:05.767Z,10.50
2019-03-06T02:09:34.887Z,9.20
2019-03-06T02:12:04.354Z,9.28
2019-03-06T02:14:33.436Z,10.28
2019-03-06T02:17:02.510Z,9.98
2019-03-06T02:19:31.581Z,9.70
2019-03-06T02:22:00.661Z,9.18
2019-03-06T02:24:29.792Z,9.03
2019-03-06T02:26:58.894Z,9.13
2019-03-06T02:29:27.945Z,15.18
2019-03-06T02:31:57.203Z,12.90
2019-03-06T02:34:27.117Z,10.60
2019-03-06T02:36:56.481Z,12.67
2019-03-06T02:39:25.818Z,9.53
2019-03-06T02:41:55.089Z,11.93
2019-03-06T02:44:24.602Z,13.28
2019-03-06T02:46:53.763Z,11.55
2019-03-06T02:49:23.034Z,16.20
2019-03-06T02:51:52.422Z,10.82
2019-03-06T02:54:21.796Z,11.63
2019-03-06T02:56:51.032Z,11.18
2019-03-06T02:59:39.368Z,11.88
2019-03-06T03:02:26.484Z,13.45
2019-03-06T03:05:23.939Z,15.40
2019-03-06T03:07:53.197Z,13.60
2019-03-06T03:10:22.564Z,12.70
2019-03-06T03:12:51.934Z,14.85
2019-03-06T03:15:21.301Z,11.78
2019-03-06T03:17:50.646Z,11.97
2019-03-06T03:20:19.905Z,18.07
2019-03-06T03:22:49.138Z,14.10
2019-03-06T03:25:18.424Z,13.48
2019-03-06T03:27:47.777Z,13.35
2019-03-06T03:30:17.135Z,12.88
2019-03-06T03:32:46.482Z,13.00
2019-03-06T03:35:15.834Z,18.17
2019-03-06T03:37:45.150Z,13.45
2019-03-06T03:40:15.257Z,14.78
2019-03-06T03:42:44.508Z,13.55
2019-03-06T03:45:14.017Z,13.13
2019-03-06T03:47:44.835Z,11.45
2019-03-06T03:50:14.157Z,16.23
2019-03-06T03:52:43.697Z,13.10
2019-03-06T03:55:13.236Z,13.05
2019-03-06T03:57:42.515Z,12.80
2019-03-06T04:00:13.451Z,15.80
2019-03-06T04:02:42.773Z,14.43
2019-03-06T04:05:12.754Z,17.17
2019-03-06T04:07:42.219Z,11.90
2019-03-06T04:10:11.775Z,12.78
2019-03-06T04:12:41.097Z,15.93
2019-03-06T04:15:10.905Z,12.47
2019-03-06T04:17:40.416Z,13.83
2019-03-06T04:20:11.152Z,14.38
2019-03-06T04:22:40.547Z,14.58
2019-03-06T04:25:09.928Z,14.53
2019-03-06T04:27:39.212Z,16.62
2019-03-06T04:30:11.041Z,16.57
2019-03-06T04:32:40.311Z,12.78
2019-03-06T04:35:09.732Z,15.35
2019-03-06T04:37:39.109Z,13.13
2019-03-06T04:40:08.502Z,18.27
2019-03-06T04:42:37.786Z,13.08
2019-03-06T04:45:07.495Z,15.60
2019-03-06T04:47:37.139Z,12.85
2019-03-06T04:50:07.056Z,14.68
2019-03-06T04:52:36.421Z,12.60
2019-03-06T04:55:05.947Z,12.73
2019-03-06T04:57:35.287Z,14.63
2019-03-06T05:00:05.270Z,16.05
2019-03-06T05:02:34.649Z,16.15
2019-03-06T05:05:04.151Z,11.70
2019-03-06T05:07:33.447Z,14.18
2019-03-06T05:10:02.735Z,15.95
2019-03-06T05:12:32.037Z,14.65
2019-03-06T05:15:01.284Z,14.45
2019-03-06T05:17:54.513Z,14.87
2019-03-06T05:20:24.132Z,12.63
2019-03-06T05:22:53.496Z,14.18
2019-03-06T05:25:22.760Z,17.85
2019-03-06T05:27:51.967Z,17.10
2019-03-06T05:30:22.992Z,16.12
2019-03-06T05:32:52.602Z,15.13
2019-03-06T05:35:55.131Z,14.98
2019-03-06T05:38:32.132Z,16.20
2019-03-06T05:41:01.463Z,15.53
2019-03-06T05:43:31.214Z,14.78
2019-03-06T05:46:00.402Z,16.23
2019-03-06T05:48:29.827Z,17.57
2019-03-06T05:50:59.467Z,16.07
2019-03-06T05:53:28.786Z,16.07
2019-03-06T05:55:58.375Z,18.27
2019-03-06T05:58:27.803Z,17.10
2019-03-06T06:00:57.171Z,17.52
2019-03-06T06:03:26.344Z,20.88
2019-03-06T06:05:55.587Z,16.85
2019-03-06T06:08:24.859Z,16.10
2019-03-06T06:10:54.132Z,19.42
2019-03-06T06:13:23.416Z,18.12
2019-03-06T06:15:52.704Z,21.48
2019-03-06T06:18:21.963Z,20.97
2019-03-06T06:20:59.620Z,17.32
2019-03-06T06:23:45.317Z,16.77
2019-03-06T06:26:14.660Z,16.23
2019-03-06T06:28:44.250Z,18.77
2019-03-06T06:31:13.565Z,23.62
2019-03-06T06:33:42.969Z,17.40
2019-03-06T06:36:12.260Z,16.73
2019-03-06T06:38:41.424Z,14.45
2019-03-06T06:41:10.679Z,17.20
2019-03-06T06:43:39.976Z,18.07
2019-03-06T06:46:09.327Z,21.42
2019-03-06T06:48:38.636Z,15.97
2019-03-06T06:51:19.814Z,15.13
2019-03-06T06:54:26.256Z,17.63
2019-03-06T06:57:42.602Z,17.75
2019-03-06T07:01:01.229Z,16.17
2019-03-06T07:04:20.780Z,16.30
2019-03-06T07:07:24.460Z,18.20
2019-03-06T07:10:15.897Z,18.97
2019-03-06T07:12:57.944Z,18.57
2019-03-06T07:15:42.651Z,17.53
2019-03-06T07:18:18.948Z,16.82
2019-03-06T07:21:11.512Z,17.92
2019-03-06T07:23:59.741Z,16.15
2019-03-06T07:26:39.083Z,21.37
2019-03-06T07:29:23.767Z,17.20
2019-03-06T07:32:16.509Z,16.82
2019-03-06T07:35:40.997Z,17.35
2019-03-06T07:38:10.165Z,19.77
2019-03-06T07:41:16.937Z,19.62
2019-03-06T07:44:09.251Z,19.98
2019-03-06T07:47:03.236Z,18.52
2019-03-06T07:49:45.600Z,18.25
2019-03-06T07:52:33.389Z,17.77
2019-03-06T07:55:08.248Z,15.10
2019-03-06T07:58:14.540Z,17.12
2019-03-06T08:00:43.875Z,15.80
2019-03-06T08:03:58.268Z,15.45
2019-03-06T08:06:28.323Z,16.15
2019-03-06T08:08:58.175Z,27.17
2019-03-06T08:11:39.335Z,15.95
2019-03-06T08:14:26.606Z,21.12
2019-03-06T08:17:03.496Z,13.32
2019-03-06T08:19:48.241Z,13.40
2019-03-06T08:22:38.933Z,15.63
2019-03-06T08:25:27.538Z,20.75
2019-03-06T08:27:57.111Z,14.70
2019-03-06T08:30:28.331Z,17.85
2019-03-06T08:32:57.859Z,16.20
2019-03-06T08:35:27.409Z,16.55
2019-03-06T08:37:57.173Z,15.55
2019-03-06T08:40:26.705Z,15.32
2019-03-06T08:42:56.214Z,11.55
2019-03-06T08:45:29.735Z,15.58
2019-03-06T08:48:08.409Z,15.58
2019-03-06T08:50:46.554Z,18.47
2019-03-06T08:53:31.256Z,15.53
2019-03-06T08:56:05.712Z,18.07
2019-03-06T08:58:41.162Z,16.37
2019-03-06T09:01:48.977Z,12.28
2019-03-06T09:04:37.418Z,13.20
2019-03-06T09:07:22.978Z,15.88
2019-03-06T09:10:17.464Z,11.78
2019-03-06T09:13:08.761Z,13.20
2019-03-06T09:15:55.741Z,14.33
2019-03-06T09:18:50.100Z,11.63
2019-03-06T09:21:44.624Z,11.10
2019-03-06T09:24:24.294Z,19.85
2019-03-06T09:27:08.528Z,15.63
2019-03-06T09:30:00.738Z,12.28
2019-03-06T09:33:01.020Z,10.80
2019-03-06T09:35:55.533Z,11.00
2019-03-06T09:38:43.195Z,14.55
2019-03-06T09:41:31.652Z,16.07
2019-03-06T09:44:20.338Z,13.08
2019-03-06T09:47:07.888Z,17.67
2019-03-06T09:49:45.536Z,13.28
2019-03-06T09:52:32.619Z,14.95
2019-03-06T09:55:21.105Z,11.60
2019-03-06T09:58:00.885Z,11.63
2019-03-06T10:00:52.316Z,10.32
2019-03-06T10:03:37.001Z,10.80
2019-03-06T10:06:28.000Z,10.20
2019-03-06T10:09:16.740Z,13.15
2019-03-06T10:12:04.060Z,12.73
2019-03-06T10:14:41.608Z,11.60
2019-03-06T10:17:30.254Z,8.53
2019-03-06T10:20:03.790Z,13.68
2019-03-06T10:22:33.168Z,11.53
2019-03-06T10:25:02.742Z,9.50
2019-03-06T10:27:32.070Z,10.63
2019-03-06T10:30:01.427Z,11.35
2019-03-06T10:32:30.768Z,9.00
2019-03-06T10:35:00.309Z,8.30
2019-03-06T10:37:29.640Z,9.57
2019-03-06T10:39:59.036Z,9.58
2019-03-06T10:42:28.372Z,10.32
2019-03-06T10:44:57.863Z,11.65
2019-03-06T10:47:27.265Z,8.37
2019-03-06T10:49:57.837Z,11.78
2019-03-06T10:52:27.152Z,11.43
2019-03-06T10:54:57.676Z,12.23
2019-03-06T10:57:27.092Z,11.73
2019-03-06T10:59:56.503Z,13.93
2019-03-06T11:02:25.836Z,12.45
2019-03-06T11:05:11.831Z,9.80
2019-03-06T11:07:41.192Z,17.67
2019-03-06T11:10:11.420Z,11.57
2019-03-06T11:12:41.125Z,8.75
2019-03-06T11:15:11.701Z,8.65
2019-03-06T11:17:41.307Z,18.27
2019-03-06T11:20:13.596Z,11.43
2019-03-06T11:22:42.988Z,11.35
2019-03-06T11:25:12.703Z,8.63
2019-03-06T11:27:42.051Z,12.60
2019-03-06T11:30:17.482Z,6.95
2019-03-06T11:32:54.270Z,6.45
2019-03-06T11:35:19.431Z,10.03
2019-03-06T11:37:48.873Z,6.95
2019-03-06T11:40:18.461Z,7.95
2019-03-06T11:42:48.076Z,8.95
2019-03-06T11:45:18.355Z,10.17
2019-03-06T11:47:48.045Z,10.70
2019-03-06T11:50:17.944Z,8.40
2019-03-06T11:52:47.417Z,6.90
2019-03-06T11:55:17.260Z,7.62
2019-03-06T11:57:46.892Z,11.48
2019-03-06T12:00:28.172Z,5.97
2019-03-06T12:02:57.611Z,9.63
2019-03-06T12:05:27.363Z,7.25
2019-03-06T12:07:56.707Z,9.67
2019-03-06T12:10:27.209Z,7.85
2019-03-06T12:12:56.901Z,11.50
2019-03-06T12:15:26.544Z,6.95
2019-03-06T12:17:55.905Z,8.78
2019-03-06T12:20:25.233Z,6.10
2019-03-06T12:22:54.579Z,16.40
2019-03-06T12:25:24.085Z,9.48
2019-03-06T12:27:53.347Z,11.00
2019-03-06T12:30:22.705Z,6.90
2019-03-06T12:32:51.990Z,9.10
2019-03-06T12:35:22.217Z,21.25
2019-03-06T12:37:51.888Z,11.08
2019-03-06T12:40:23.945Z,9.43
2019-03-06T12:42:53.198Z,9.53
2019-03-06T12:45:22.559Z,20.85
2019-03-06T12:47:55.418Z,20.63
2019-03-06T12:50:24.622Z,9.45
2019-03-06T12:52:53.927Z,11.40
2019-03-06T12:55:23.443Z,9.78
2019-03-06T12:57:59.079Z,6.97
2019-03-06T13:00:24.688Z,10.75
2019-03-06T13:02:54.120Z,8.40
2019-03-06T13:05:24.744Z,7.87
2019-03-06T13:07:54.066Z,9.10
2019-03-06T13:10:23.425Z,9.85
2019-03-06T13:12:53.159Z,6.90
2019-03-06T13:15:24.025Z,7.50
2019-03-06T13:17:54.783Z,6.45
2019-03-06T13:20:24.332Z,5.23
2019-03-06T13:22:54.401Z,7.85
2019-03-06T13:25:24.110Z,6.58
2019-03-06T13:27:55.221Z,4.65
2019-03-06T13:30:25.256Z,6.15
2019-03-06T13:33:16.331Z,6.75
2019-03-06T13:35:45.679Z,4.92
2019-03-06T13:38:15.956Z,8.00
2019-03-06T13:40:45.517Z,6.33
2019-03-06T13:43:14.832Z,5.47
2019-03-06T13:45:44.492Z,6.92
2019-03-06T13:48:13.861Z,5.75
2019-03-06T13:50:43.228Z,5.65
2019-03-06T13:53:20.109Z,5.00
2019-03-06T13:55:43.519Z,6.65
2019-03-06T13:58:13.028Z,7.87
2019-03-06T14:00:42.365Z,7.30
2019-03-06T14:03:11.732Z,4.30
2019-03-06T14:05:41.472Z,6.03
2019-03-06T14:08:10.872Z,15.13
2019-03-06T14:10:40.227Z,10.00
2019-03-06T14:13:11.274Z,6.95
2019-03-06T14:15:40.616Z,11.95
2019-03-06T14:18:11.679Z,6.12
2019-03-06T14:20:41.045Z,4.28
2019-03-06T14:23:10.602Z,6.08
2019-03-06T14:25:40.084Z,6.17
2019-03-06T14:28:11.042Z,5.25
2019-03-06T14:30:40.272Z,9.35
2019-03-06T14:33:09.549Z,4.67
2019-03-06T14:35:38.835Z,8.65
2019-03-06T14:38:08.668Z,5.05
2019-03-06T14:40:37.984Z,6.95
2019-03-06T14:43:08.516Z,7.03
2019-03-06T14:45:37.956Z,8.75
2019-03-06T14:48:07.600Z,8.78
2019-03-06T14:50:36.986Z,13.95
2019-03-06T14:53:09.360Z,5.67
2019-03-06T14:55:38.608Z,4.85
2019-03-06T14:58:08.013Z,4.08
2019-03-06T15:00:37.335Z,6.87
2019-03-06T15:03:06.689Z,6.92
2019-03-06T15:05:36.442Z,5.65
2019-03-06T15:08:07.301Z,8.08
2019-03-06T15:10:42.743Z,9.48
2019-03-06T15:13:07.764Z,6.92
2019-03-06T15:15:37.118Z,8.15
2019-03-06T15:18:10.578Z,7.47
2019-03-06T15:20:37.582Z,9.60
2019-03-06T15:23:07.140Z,7.90
2019-03-06T15:25:36.480Z,9.93
2019-03-06T15:28:05.975Z,6.80
2019-03-06T15:30:35.284Z,6.30
2019-03-06T15:33:04.961Z,5.83
2019-03-06T15:35:34.282Z,4.93
2019-03-06T15:38:05.094Z,5.67
2019-03-06T15:40:34.491Z,6.12
2019-03-06T15:43:05.867Z,5.37
2019-03-06T15:45:34.914Z,7.00
2019-03-06T15:48:04.679Z,9.85
2019-03-06T15:50:35.067Z,9.60
2019-03-06T15:53:04.620Z,5.12
2019-03-06T15:55:33.972Z,5.70
2019-03-06T15:58:03.368Z,5.95
2019-03-06T16:00:34.224Z,6.60
2019-03-06T16:03:05.147Z,5.25
2019-03-06T16:05:35.572Z,4.95
2019-03-06T16:08:05.825Z,6.37
2019-03-06T16:10:35.399Z,6.97
2019-03-06T16:13:05.768Z,7.17
2019-03-06T16:15:35.533Z,8.90
2019-03-06T16:18:05.295Z,8.83
2019-03-06T16:20:35.164Z,11.60
2019-03-06T16:23:06.590Z,7.35
2019-03-06T16:25:37.989Z,7.15
2019-03-06T16:28:06.933Z,12.10
2019-03-06T16:30:36.455Z,7.20
2019-03-06T16:33:09.088Z,10.13
2019-03-06T16:35:38.535Z,9.38
2019-03-06T16:38:07.916Z,11.88
2019-03-06T16:40:40.415Z,8.55
2019-03-06T16:43:09.781Z,8.48
2019-03-06T16:45:39.580Z,10.80
2019-03-06T16:48:08.924Z,8.58
2019-03-06T16:50:38.405Z,17.20
2019-03-06T16:53:07.860Z,9.63
2019-03-06T16:55:37.205Z,10.72
2019-03-06T16:58:06.652Z,9.08
2019-03-06T17:00:36.420Z,9.98
2019-03-06T17:03:05.932Z,8.05
2019-03-06T17:05:35.462Z,11.57
2019-03-06T17:08:05.205Z,9.97
2019-03-06T17:10:35.384Z,13.05
2019-03-06T17:13:04.867Z,20.48
2019-03-06T17:15:34.513Z,15.60
2019-03-06T17:18:03.905Z,15.68
2019-03-06T17:20:33.544Z,9.28
2019-03-06T17:23:02.935Z,15.13
2019-03-06T17:25:33.324Z,9.90
2019-03-06T17:28:02.841Z,9.08
2019-03-06T17:30:32.501Z,10.40
2019-03-06T17:33:04.011Z,10.53
2019-03-06T17:35:33.817Z,9.53
2019-03-06T17:38:03.519Z,10.35
2019-03-06T17:40:32.860Z,9.63
2019-03-06T17:43:02.290Z,11.50
2019-03-06T17:45:31.725Z,10.85
2019-03-06T17:48:01.644Z,9.40
2019-03-06T17:50:31.158Z,10.05
2019-03-06T17:53:00.756Z,9.30
2019-03-06T17:55:30.277Z,9.48
2019-03-06T17:57:59.593Z,8.50
2019-03-06T18:00:47.095Z,8.50
2019-03-06T18:03:21.106Z,10.00
2019-03-06T18:05:50.522Z,8.50
2019-03-06T18:08:19.912Z,8.35
2019-03-06T18:10:49.275Z,8.35
2019-03-06T18:13:18.896Z,7.30
2019-03-06T18:15:50.727Z,7.87
2019-03-06T18:18:19.998Z,8.33
2019-03-06T18:20:49.328Z,8.40
2019-03-06T18:23:18.644Z,9.43
2019-03-06T18:25:48.365Z,7.70
2019-03-06T18:28:17.682Z,9.73
2019-03-06T18:30:47.060Z,8.15
2019-03-06T18:33:16.697Z,7.47
2019-03-06T18:35:46.115Z,8.48
2019-03-06T18:38:15.423Z,7.67
2019-03-06T18:40:45.208Z,12.13
2019-03-06T18:43:14.592Z,9.18
2019-03-06T18:45:44.028Z,6.87
2019-03-06T18:48:13.444Z,9.23
2019-03-06T18:50:42.707Z,12.33
2019-03-06T18:53:12.096Z,18.15
2019-03-06T18:55:41.787Z,8.00
2019-03-06T18:58:12.960Z,13.08
2019-03-06T19:00:42.187Z,9.18
2019-03-06T19:03:11.516Z,9.08
2019-03-06T19:05:41.386Z,9.28
2019-03-06T19:08:10.712Z,6.83
2019-03-06T19:10:40.021Z,6.03
2019-03-06T19:13:09.584Z,9.73
2019-03-06T19:15:38.828Z,7.53
2019-03-06T19:18:08.517Z,6.80
2019-03-06T19:20:37.744Z,6.35
2019-03-06T19:23:07.048Z,6.55
2019-03-06T19:25:36.332Z,5.60
2019-03-06T19:28:07.029Z,5.60
2019-03-06T19:30:36.383Z,5.55
2019-03-06T19:33:07.642Z,6.47
2019-03-06T19:35:36.886Z,7.42
2019-03-06T19:38:06.536Z,8.58
2019-03-06T19:40:37.005Z,6.15
2019-03-06T19:43:06.272Z,4.80
2019-03-06T19:45:36.062Z,5.33
2019-03-06T19:48:09.688Z,5.37
2019-03-06T19:50:39.334Z,9.53
2019-03-06T19:53:09.091Z,6.50
2019-03-06T19:55:38.345Z,6.60
2019-03-06T19:58:08.579Z,8.88
2019-03-06T20:00:37.922Z,6.27
2019-03-06T20:03:08.763Z,6.20
2019-03-06T20:05:38.539Z,6.90
2019-03-06T20:08:12.510Z,5.65
2019-03-06T20:10:41.941Z,6.40
2019-03-06T20:13:11.622Z,4.67
2019-03-06T20:15:40.973Z,6.17
2019-03-06T20:18:10.760Z,6.23
2019-03-06T20:20:40.363Z,6.67
2019-03-06T20:23:12.788Z,4.83
2019-03-06T20:25:42.176Z,5.05
2019-03-06T20:28:11.503Z,5.40
2019-03-06T20:30:40.839Z,4.60
2019-03-06T20:33:10.258Z,5.60
2019-03-06T20:35:39.776Z,6.60
2019-03-06T20:38:09.148Z,5.37
2019-03-06T20:40:38.497Z,4.47
2019-03-06T20:43:07.827Z,4.33
2019-03-06T20:45:37.172Z,4.85
2019-03-06T20:48:06.843Z,6.37
2019-03-06T20:50:36.339Z,8.15
2019-03-06T20:53:05.604Z,4.57
2019-03-06T20:55:34.903Z,6.17
2019-03-06T20:58:04.765Z,6.15
2019-03-06T21:00:34.090Z,4.42
2019-03-06T21:03:03.426Z,4.10
2019-03-06T21:05:35.797Z,5.03
2019-03-06T21:08:05.113Z,6.22
2019-03-06T21:10:34.881Z,6.40
2019-03-06T21:13:04.250Z,5.92
2019-03-06T21:15:36.568Z,5.95
2019-03-06T21:18:06.087Z,6.83
2019-03-06T21:20:35.435Z,5.10
2019-03-06T21:23:04.782Z,4.85
2019-03-06T21:25:34.427Z,4.57
2019-03-06T21:28:03.764Z,9.50
2019-03-06T21:30:37.925Z,4.80
2019-03-06T21:33:07.204Z,5.72
2019-03-06T21:35:36.546Z,5.22
2019-03-06T21:38:05.875Z,7.43
2019-03-06T21:40:35.216Z,6.28
2019-03-06T21:43:04.571Z,5.28
2019-03-06T21:45:34.024Z,5.05
2019-03-06T21:48:03.378Z,5.08
2019-03-06T21:50:37.523Z,5.87
2019-03-06T21:53:06.817Z,6.00
2019-03-06T21:55:36.158Z,5.80
2019-03-06T21:58:05.484Z,5.65
2019-03-06T22:00:34.830Z,6.25
2019-03-06T22:03:04.397Z,6.30
2019-03-06T22:05:33.783Z,6.20
2019-03-06T22:08:03.896Z,4.50
2019-03-06T22:10:33.237Z,5.87
2019-03-06T22:13:02.553Z,6.00
2019-03-06T22:15:31.917Z,6.25
2019-03-06T22:18:01.235Z,4.37
2019-03-06T22:20:30.600Z,5.70
2019-03-06T22:23:00.400Z,5.83
2019-03-06T22:25:29.715Z,6.03
2019-03-06T22:27:59.046Z,5.28
2019-03-06T22:30:28.480Z,6.30
2019-03-06T22:32:59.574Z,6.00
2019-03-06T22:35:28.720Z,5.03
2019-03-06T22:37:58.333Z,5.12
2019-03-06T22:40:28.437Z,7.00
2019-03-06T22:42:57.928Z,36.85
2019-03-06T22:45:27.245Z,10.05
2019-03-06T22:47:56.489Z,5.97
2019-03-06T22:50:25.823Z,7.85
2019-03-06T22:52:55.307Z,8.05
2019-03-06T22:55:25.573Z,5.40
2019-03-06T22:57:54.816Z,5.10
2019-03-06T23:01:11.546Z,8.20
2019-03-06T23:03:41.131Z,5.78
2019-03-06T23:06:10.500Z,6.08
2019-03-06T23:08:39.780Z,7.33
2019-03-06T23:11:09.492Z,6.03
2019-03-06T23:13:38.925Z,5.75
2019-03-06T23:16:08.216Z,5.97
2019-03-06T23:18:37.552Z,5.75
2019-03-06T23:21:06.791Z,5.53
2019-03-06T23:23:36.092Z,7.53
2019-03-06T23:26:05.432Z,5.37
2019-03-06T23:28:34.855Z,5.28
2019-03-06T23:31:04.210Z,5.97
2019-03-06T23:33:33.372Z,5.78
2019-03-06T23:36:02.639Z,4.78
2019-03-06T23:38:32.347Z,6.42
2019-03-06T23:41:01.693Z,6.10
2019-03-06T23:43:30.851Z,6.40
2019-03-06T23:46:00.198Z,6.25
2019-03-06T23:48:29.525Z,7.17
2019-03-06T23:51:00.452Z,4.95
2019-03-06T23:53:48.756Z,5.28
2019-03-06T23:56:18.136Z,4.70
2019-03-06T23:58:47.508Z,5.55
